Latest Weather Observations for Hunters Hill

IDV60801

Issued at 10:32 pm EDT Thursday 23 February 2017 (issued every 30 minutes, with the page automatically refreshed every 10 minutes)

About weather observations | Map of weather stations | Latest weather observations for VIC | Other Formats
Station Details ID: 082139 Name: HUNTERS HILL Lat: -36.21 Lon: 147.54 Height: 981.0 m
Data from the previous 72 hours. | See also: Recent months at Hunters Hill
Date/Time
EDT
Temp
°C
App
Temp
°C
Dew
Point
°C
Rel
Hum
%
Delta-T
°C
Wind Press
QNH
hPa
Press
MSL
hPa
Rain since
9am
mm
Dir  Spd
km/h
Gust
km/h
Spd
kts
Gust
kts
23/10:30pm 21.7 18.3 3.9 31 9.0 WSW 11 17 6 9 - - 0.0
23/10:00pm 22.1 18.9 3.3 29 9.5 W 9 15 5 8 - - 0.0
23/09:30pm 22.6 19.7 2.7 27 10.0 WSW 7 15 4 8 - - 0.0
23/09:00pm 22.9 20.0 2.4 26 10.2 W 7 17 4 9 - - 0.0
23/08:30pm 23.4 20.4 1.7 24 10.7 WSW 7 15 4 8 - - 0.0
23/08:00pm 23.6 20.6 1.9 24 10.8 WSW 7 13 4 7 - - 0.0
23/07:30pm 24.9 21.6 2.4 23 11.4 WSW 9 20 5 11 - - 0.0
23/07:00pm 25.7 22.8 2.4 22 11.8 W 7 15 4 8 - - 0.0
23/06:30pm 27.2 23.9 2.3 20 12.7 WSW 9 19 5 10 - - 0.0
23/06:00pm 27.7 23.9 2.0 19 13.1 W 11 26 6 14 - - 0.0
23/05:30pm 27.9 23.9 0.6 17 13.6 W 11 26 6 14 - - 0.0
23/05:00pm 29.3 26.6 5.4 22 13.0 W 9 17 5 9 - - 0.0
23/04:30pm 29.4 26.3 5.5 22 13.1 W 11 24 6 13 - - 0.0
23/04:00pm 28.5 24.2 1.1 17 13.8 NW 13 26 7 14 - - 0.0
23/03:30pm 28.4 23.1 -0.7 15 14.2 WNW 17 33 9 18 - - 0.0
23/03:00pm 29.1 24.8 0.7 16 14.3 WNW 13 26 7 14 - - 0.0
23/02:30pm 28.5 25.1 4.1 21 13.0 NW 11 24 6 13 - - 0.0
23/02:00pm 28.5 24.2 3.4 20 13.2 WNW 15 28 8 15 - - 0.0
23/01:30pm 28.2 24.8 3.8 21 12.9 NW 11 26 6 14 - - 0.0
23/01:00pm 27.9 24.8 5.5 24 12.2 NW 11 24 6 13 - - 0.0
23/12:30pm 26.8 23.5 4.6 24 11.8 NW 11 28 6 15 - - 0.0
23/12:00pm 26.8 25.2 7.8 30 10.7 NW 6 9 3 5 - - 0.0
23/11:30am 25.3 23.0 5.5 28 10.6 NNW 7 15 4 8 - - 0.0
23/11:00am 25.0 23.4 8.1 34 9.4 N 6 11 3 6 - - 0.0
23/10:30am 24.6 23.3 7.7 34 9.4 NNE 4 9 2 5 - - 0.0
23/10:00am 23.7 22.2 8.6 38 8.5 NNE 6 9 3 5 - - 0.0
23/09:30am 21.9 19.9 7.3 39 7.9 NNE 7 15 4 8 - - 0.0
23/09:00am 20.7 19.3 8.7 46 6.6 NNE 6 9 3 5 - - 0.0
23/08:30am 19.7 18.3 7.4 45 6.6 N 4 11 2 6 - - 0.0
23/08:00am 19.5 17.0 6.6 43 6.8 N 9 19 5 10 - - 0.0
23/07:30am 19.4 16.7 5.8 41 7.1 N 9 22 5 12 - - 0.0
23/07:00am 19.7 17.2 6.4 42 7.0 NNW 9 20 5 11 - - 0.0
23/06:30am 20.1 17.1 6.1 40 7.3 NNW 11 19 6 10 - - 0.0
23/06:00am 20.3 17.5 5.1 37 7.8 NNW 9 20 5 11 - - 0.0
23/05:30am 20.7 17.5 5.1 36 8.1 N 11 24 6 13 - - 0.0
23/05:00am 20.2 16.8 3.9 34 8.2 NNE 11 24 6 13 - - 0.0
23/04:30am 20.5 17.0 3.3 32 8.6 N 11 19 6 10 - - 0.0
23/04:00am 20.8 17.1 2.6 30 9.0 N 11 20 6 11 - - 0.0
23/03:30am 20.8 17.4 2.1 29 9.1 N 9 19 5 10 - - 0.0
23/03:00am 21.1 17.6 1.4 27 9.5 N 9 17 5 9 - - 0.0
23/02:30am 21.4 17.6 1.7 27 9.6 NNE 11 19 6 10 - - 0.0
23/02:00am 21.4 17.6 1.7 27 9.6 NNE 11 17 6 9 - - 0.0
23/01:30am 22.1 18.3 1.7 26 10.0 N 11 20 6 11 - - 0.0
23/01:00am 21.7 18.3 1.9 27 9.7 NNE 9 24 5 13 - - 0.0
23/12:30am 22.0 18.2 1.6 26 10.0 NNE 11 22 6 12 - - 0.0
23/12:00am 22.2 18.8 1.8 26 10.0 NNE 9 17 5 9 - - 0.0
 
Date/Time
EDT
Temp
°C
App
Temp
°C
Dew
Point
°C
Rel
Hum
%
Delta-T
°C
Wind Press
QNH
hPa
Press
MSL
hPa
Rain since
9am
mm
Dir  Spd
km/h
Gust
km/h
Spd
kts
Gust
kts
22/11:30pm 22.4 18.9 1.4 25 10.2 NNE 9 17 5 9 - - 0.0
22/11:00pm 22.3 18.9 1.9 26 10.0 NNE 9 17 5 9 - - 0.0
22/10:30pm 22.8 18.9 1.2 24 10.5 NNE 11 19 6 10 - - 0.0
22/10:00pm 22.1 18.7 1.7 26 10.0 NNE 9 15 5 8 - - 0.0
22/09:30pm 22.4 19.3 1.4 25 10.2 NNE 7 13 4 7 - - 0.0
22/09:00pm 22.8 19.7 1.2 24 10.5 N 7 11 4 6 - - 0.0
22/08:30pm 23.3 20.1 1.0 23 10.9 NNW 7 17 4 9 - - 0.0
22/08:00pm 23.3 20.2 1.6 24 10.7 NNW 7 15 4 8 - - 0.0
22/07:30pm 23.8 21.0 2.0 24 10.8 NW 6 15 3 8 - - 0.0
22/07:00pm 24.3 20.9 1.9 23 11.2 N 9 15 5 8 - - 0.0
22/06:30pm 25.3 22.4 2.7 23 11.5 N 7 15 4 8 - - 0.0
22/06:00pm 25.7 22.3 1.8 21 12.0 NW 9 19 5 10 - - 0.0
22/05:30pm 25.8 22.6 3.1 23 11.7 NNW 9 17 5 9 - - 0.0
22/05:00pm 27.0 24.4 4.1 23 12.1 NNW 7 15 4 8 - - 0.0
22/04:30pm 25.6 22.9 3.6 24 11.4 NNW 7 20 4 11 - - 0.0
22/04:00pm 26.4 23.4 4.2 24 11.7 WNW 9 17 5 9 - - 0.0
22/03:30pm 26.2 23.7 4.6 25 11.4 NNW 7 13 4 7 - - 0.0
22/03:00pm 25.0 22.4 4.2 26 10.9 NNW 7 15 4 8 - - 0.0
22/02:30pm 24.7 22.5 6.0 30 10.1 N 7 20 4 11 - - 0.0
22/02:00pm 23.2 20.9 5.6 32 9.3 NW 7 15 4 8 - - 0.0
22/01:30pm 22.8 20.1 5.7 33 9.0 N 9 28 5 15 - - 0.0
22/01:00pm 23.1 21.4 7.6 37 8.5 N 6 15 3 8 - - 0.0
22/12:30pm 21.7 19.8 7.5 40 7.7 NNE 7 17 4 9 - - 0.0
22/12:00pm 21.2 19.0 7.8 42 7.3 N 9 19 5 10 - - 0.0
22/11:30am 20.3 18.2 8.3 46 6.6 N 9 17 5 9 - - 0.0
22/11:00am 18.9 17.2 8.3 50 5.8 NNE 7 17 4 9 - - 0.0
22/10:30am 18.8 16.8 8.7 52 5.5 NNE 9 22 5 12 - - 0.0
22/10:00am 18.3 16.7 8.6 53 5.3 NNE 7 13 4 7 - - 0.0
22/09:30am 17.7 16.4 9.3 58 4.6 NE 6 13 3 7 - - 0.0
22/09:00am 15.9 14.6 9.1 64 3.7 NE 6 11 3 6 - - 0.0
22/08:30am 14.3 13.1 8.0 66 3.3 SE 4 6 2 3 - - 0.0
22/08:00am 13.0 12.0 7.2 68 3.0 SE 2 6 1 3 - - 0.0
22/07:30am 12.7 11.5 6.3 65 3.2 SE 2 6 1 3 - - 0.0
22/07:00am 12.5 11.2 6.1 65 3.2 SE 2 4 1 2 - - 0.0
22/06:30am 12.3 11.0 6.1 66 3.1 SE 2 4 1 2 - - 0.0
22/06:00am 11.8 10.6 6.3 69 2.7 SE 2 4 1 2 - - 0.0
22/05:30am 11.9 10.4 4.9 62 3.4 SE 2 4 1 2 - - 0.0
22/05:00am 12.2 10.5 3.9 57 3.9 SE 2 4 1 2 - - 0.0
22/04:30am 12.7 11.1 2.6 50 4.7 CALM 0 0 0 0 - - 0.0
22/04:00am 13.2 11.0 1.2 44 5.4 SE 2 4 1 2 - - 0.0
22/03:30am 13.2 10.3 1.5 45 5.3 SE 6 7 3 4 - - 0.0
22/03:00am 12.5 10.7 3.2 53 4.4 SE 2 6 1 3 - - 0.0
22/02:30am 13.1 11.1 2.1 47 5.1 SE 2 2 1 1 - - 0.0
22/02:00am 13.3 11.3 2.2 47 5.1 SE 2 4 1 2 - - 0.0
22/01:30am 13.7 12.0 2.0 45 5.4 CALM 0 0 0 0 - - 0.0
22/01:00am 14.2 12.4 1.5 42 5.8 CALM 0 0 0 0 - - 0.0
22/12:30am 14.7 12.9 0.9 39 6.3 CALM 0 0 0 0 - - 0.0
22/12:00am 15.3 13.4 0.7 37 6.6 CALM 0 2 0 1 - - 0.0
 
Date/Time
EDT
Temp
°C
App
Temp
°C
Dew
Point
°C
Rel
Hum
%
Delta-T
°C
Wind Press
QNH
hPa
Press
MSL
hPa
Rain since
9am
mm
Dir  Spd
km/h
Gust
km/h
Spd
kts
Gust
kts
21/11:30pm 15.3 13.4 0.3 36 6.8 CALM 0 0 0 0 - - 0.0
21/11:00pm 15.3 13.4 0.3 36 6.8 CALM 0 0 0 0 - - 0.0
21/10:30pm 15.5 13.7 0.9 37 6.7 CALM 0 0 0 0 - - 0.0
21/10:00pm 15.9 14.2 2.0 39 6.5 CALM 0 0 0 0 - - 0.0
21/09:30pm 16.0 14.3 1.7 38 6.7 CALM 0 0 0 0 - - 0.0
21/09:00pm 15.7 13.9 1.4 38 6.6 CALM 0 0 0 0 - - 0.0
21/08:30pm 16.4 14.8 2.4 39 6.7 CALM 0 0 0 0 - - 0.0
21/08:00pm 16.8 15.1 1.7 36 7.1 CALM 0 0 0 0 - - 0.0
21/07:30pm 18.3 16.8 3.0 36 7.5 CALM 0 0 0 0 - - 0.0
21/07:00pm 19.1 17.6 2.9 34 7.9 CALM 0 0 0 0 - - 0.0
21/06:30pm 19.9 18.4 3.2 33 8.3 CALM 0 2 0 1 - - 0.0
21/06:00pm 20.2 18.3 3.0 32 8.5 SE 2 2 1 1 - - 0.0
21/05:30pm 20.5 18.6 2.8 31 8.7 SE 2 4 1 2 - - 0.0
21/05:00pm 19.4 17.3 1.4 30 8.6 SE 2 4 1 2 - - 0.0
21/04:30pm 20.4 18.5 2.7 31 8.7 SE 2 4 1 2 - - 0.0
21/04:00pm 20.2 18.3 3.0 32 8.5 SSW 2 11 1 6 - - 0.0
21/03:30pm 19.6 17.4 3.3 34 8.1 SSW 4 6 2 3 - - 0.0
21/03:00pm 18.4 15.7 2.7 35 7.6 W 6 9 3 5 - - 0.0
21/02:30pm 18.4 15.8 3.1 36 7.5 NW 6 11 3 6 - - 0.0
21/02:00pm 17.0 14.2 1.8 36 7.2 WNW 6 11 3 6 - - 0.0
21/01:30pm 17.6 15.4 3.1 38 7.1 NW 4 13 2 7 - - 0.0
21/01:00pm 16.4 14.1 2.8 40 6.5 WNW 4 13 2 7 - - 0.0
21/12:30pm 15.5 12.8 2.7 42 6.1 NW 6 11 3 6 - - 0.0
21/12:00pm 14.9 12.3 0.7 38 6.4 WSW 4 9 2 5 - - 0.0
21/11:30am 14.5 11.7 1.8 42 5.9 SW 6 11 3 6 - - 0.0
21/11:00am 14.3 11.9 1.9 43 5.7 W 4 13 2 7 - - 0.0
21/10:30am 14.0 11.7 2.6 46 5.3 WSW 4 9 2 5 - - 0.0
21/10:00am 13.9 12.1 3.4 49 5.0 WSW 2 6 1 3 - - 0.0
21/09:30am 12.9 11.7 4.8 58 3.9 CALM 0 2 0 1 - - 0.0
21/09:00am 10.9 9.4 3.2 59 3.6 CALM 0 0 0 0 - - 0.0
21/08:30am 9.8 8.9 6.0 77 1.9 CALM 0 0 0 0 - - 0.0
21/08:00am 9.6 8.4 4.6 71 2.4 CALM 0 0 0 0 - - 0.0
21/07:30am 9.0 7.6 3.4 68 2.6 CALM 0 2 0 1 - - 0.0
21/07:00am 8.3 6.8 3.2 70 2.3 CALM 0 2 0 1 - - 0.0
21/06:30am 8.6 6.7 2.8 67 2.6 WSW 2 4 1 2 - - 0.0
21/06:00am 8.4 6.5 2.8 68 2.5 WSW 2 4 1 2 - - 0.0
21/05:30am 7.7 6.0 3.9 77 1.7 WSW 2 4 1 2 - - 0.0
21/05:00am 8.5 6.7 3.4 70 2.3 WSW 2 4 1 2 - - 0.0
21/04:30am 8.4 6.6 3.5 71 2.2 WSW 2 4 1 2 - - 0.0
21/04:00am 8.2 6.4 3.3 71 2.2 WSW 2 2 1 1 - - 0.0
21/03:30am 8.8 6.9 3.0 67 2.6 WSW 2 2 1 1 - - 0.0
21/03:00am 9.0 6.8 3.4 68 2.6 WSW 4 4 2 2 - - 0.0
21/02:30am 9.0 7.2 3.4 68 2.6 WSW 2 4 1 2 - - 0.0
21/02:00am 9.4 7.6 3.2 65 2.8 WSW 2 6 1 3 - - 0.0
21/01:30am 9.6 7.4 3.4 65 2.9 WSW 4 6 2 3 - - 0.0
21/01:00am 9.5 7.7 3.5 66 2.8 WSW 2 4 1 2 - - 0.0
21/12:30am 9.7 7.5 3.2 64 3.0 WSW 4 4 2 2 - - 0.0
21/12:00am 9.5 7.0 3.7 67 2.7 WSW 6 7 3 4 - - 0.0
 
Date/Time
EDT
Temp
°C
App
Temp
°C
Dew
Point
°C
Rel
Hum
%
Delta-T
°C
Wind Press
QNH
hPa
Press
MSL
hPa
Rain since
9am
mm
Dir  Spd
km/h
Gust
km/h
Spd
kts
Gust
kts
20/11:30pm 9.9 7.7 3.6 65 2.9 WSW 4 9 2 5 - - 0.0
20/11:00pm 10.3 7.8 4.0 65 3.0 WSW 6 11 3 6 - - 0.0

Other Formats:

Comma delimited format used in spreadsheet applications
http://www.bom.gov.au/fwo/IDV60801/IDV60801.94878.axf

JavaScript Object Notation format (JSON) in row-major order
http://www.bom.gov.au/fwo/IDV60801/IDV60801.94878.json